sensor_id;sensor_type;location;lat;lon;timestamp;pressure;altitude;pressure_sealevel;temperature;humidity
71504;BME280;59323;50.874;7.028;2024-03-06T00:02:16;101315.56;;;6.51;100.00
71504;BME280;59323;50.874;7.028;2024-03-06T00:04:42;101316.16;;;6.48;100.00
71504;BME280;59323;50.874;7.028;2024-03-06T00:07:07;101325.06;;;6.48;100.00
71504;BME280;59323;50.874;7.028;2024-03-06T00:09:37;101321.56;;;6.48;100.00
71504;BME280;59323;50.874;7.028;2024-03-06T00:12:02;101323.47;;;6.47;100.00
71504;BME280;59323;50.874;7.028;2024-03-06T00:14:31;101325.38;;;6.47;100.00
71504;BME280;59323;50.874;7.028;2024-03-06T00:17:06;101319.50;;;6.45;100.00
71504;BME280;59323;50.874;7.028;2024-03-06T00:19:32;101331.88;;;6.46;100.00
71504;BME280;59323;50.874;7.028;2024-03-06T00:22:00;101321.75;;;6.43;100.00
71504;BME280;59323;50.874;7.028;2024-03-06T00:24:26;101333.00;;;6.45;100.00
71504;BME280;59323;50.874;7.028;2024-03-06T00:26:51;101333.81;;;6.45;100.00
71504;BME280;59323;50.874;7.028;2024-03-06T00:29:17;101341.09;;;6.45;100.00
71504;BME280;59323;50.874;7.028;2024-03-06T00:31:43;101334.91;;;6.44;100.00
71504;BME280;59323;50.874;7.028;2024-03-06T00:34:12;101337.94;;;6.43;100.00
71504;BME280;59323;50.874;7.028;2024-03-06T00:36:43;101343.00;;;6.44;100.00
71504;BME280;59323;50.874;7.028;2024-03-06T00:39:11;101362.69;;;6.45;100.00
71504;BME280;59323;50.874;7.028;2024-03-06T00:41:39;101355.72;;;6.44;100.00
71504;BME280;59323;50.874;7.028;2024-03-06T00:44:07;101354.13;;;6.43;100.00
71504;BME280;59323;50.874;7.028;2024-03-06T00:46:32;101354.13;;;6.43;100.00
71504;BME280;59323;50.874;7.028;2024-03-06T00:48:58;101356.34;;;6.41;100.00
71504;BME280;59323;50.874;7.028;2024-03-06T00:51:23;101361.75;;;6.41;100.00
71504;BME280;59323;50.874;7.028;2024-03-06T00:53:49;101356.34;;;6.41;100.00
71504;BME280;59323;50.874;7.028;2024-03-06T00:56:16;101359.38;;;6.39;100.00
71504;BME280;59323;50.874;7.028;2024-03-06T00:58:42;101369.69;;;6.37;100.00
71504;BME280;59323;50.874;7.028;2024-03-06T01:01:09;101371.28;;;6.38;100.00
71504;BME280;59323;50.874;7.028;2024-03-06T01:03:34;101377.81;;;6.37;100.00
71504;BME280;59323;50.874;7.028;2024-03-06T01:06:00;101377.81;;;6.37;100.00
71504;BME280;59323;50.874;7.028;2024-03-06T01:08:25;101380.34;;;6.33;100.00
71504;BME280;59323;50.874;7.028;2024-03-06T01:10:51;101384.63;;;6.34;100.00
71504;BME280;59323;50.874;7.028;2024-03-06T01:13:18;101376.38;;;6.31;100.00
71504;BME280;59323;50.874;7.028;2024-03-06T01:15:43;101386.84;;;6.32;100.00
71504;BME280;59323;50.874;7.028;2024-03-06T01:18:13;101384.47;;;6.31;100.00
71504;BME280;59323;50.874;7.028;2024-03-06T01:20:39;101384.78;;;6.29;100.00
71504;BME280;59323;50.874;7.028;2024-03-06T01:23:05;101384.31;;;6.27;100.00
71504;BME280;59323;50.874;7.028;2024-03-06T01:25:30;101384.16;;;6.24;100.00
71504;BME280;59323;50.874;7.028;2024-03-06T01:27:57;101382.41;;;6.19;100.00
71504;BME280;59323;50.874;7.028;2024-03-06T01:30:23;101386.22;;;6.18;100.00
71504;BME280;59323;50.874;7.028;2024-03-06T01:32:51;101388.47;;;6.16;100.00
71504;BME280;59323;50.874;7.028;2024-03-06T01:35:16;101389.41;;;6.12;100.00
71504;BME280;59323;50.874;7.028;2024-03-06T01:37:41;101388.94;;;6.10;100.00
71504;BME280;59323;50.874;7.028;2024-03-06T01:40:07;101379.88;;;6.06;100.00
71504;BME280;59323;50.874;7.028;2024-03-06T01:42:36;101387.81;;;6.02;100.00
71504;BME280;59323;50.874;7.028;2024-03-06T01:45:04;101391.47;;;5.97;100.00
71504;BME280;59323;50.874;7.028;2024-03-06T01:47:30;101399.09;;;5.95;100.00
71504;BME280;59323;50.874;7.028;2024-03-06T01:49:58;101398.63;;;5.93;100.00
71504;BME280;59323;50.874;7.028;2024-03-06T01:52:26;101394.97;;;5.89;100.00
71504;BME280;59323;50.874;7.028;2024-03-06T01:54:52;101395.56;;;5.86;100.00
71504;BME280;59323;50.874;7.028;2024-03-06T01:57:20;101395.84;;;5.85;100.00
71504;BME280;59323;50.874;7.028;2024-03-06T01:59:48;101408.06;;;5.82;100.00
71504;BME280;59323;50.874;7.028;2024-03-06T02:02:13;101399.81;;;5.79;100.00
71504;BME280;59323;50.874;7.028;2024-03-06T02:04:39;101402.50;;;5.79;100.00
71504;BME280;59323;50.874;7.028;2024-03-06T02:07:08;101405.84;;;5.76;100.00
71504;BME280;59323;50.874;7.028;2024-03-06T02:09:35;101395.69;;;5.72;100.00
71504;BME280;59323;50.874;7.028;2024-03-06T02:12:01;101412.16;;;5.71;100.00
71504;BME280;59323;50.874;7.028;2024-03-06T02:14:26;101403.91;;;5.67;100.00
71504;BME280;59323;50.874;7.028;2024-03-06T02:16:52;101406.63;;;5.67;100.00
71504;BME280;59323;50.874;7.028;2024-03-06T02:19:17;101414.38;;;5.69;100.00
71504;BME280;59323;50.874;7.028;2024-03-06T02:21:43;101415.19;;;5.69;100.00
71504;BME280;59323;50.874;7.028;2024-03-06T02:24:10;101404.72;;;5.68;100.00
71504;BME280;59323;50.874;7.028;2024-03-06T02:26:36;101411.38;;;5.70;100.00
71504;BME280;59323;50.874;7.028;2024-03-06T02:29:02;101411.38;;;5.70;100.00
71504;BME280;59323;50.874;7.028;2024-03-06T02:31:27;101412.66;;;5.73;100.00
71504;BME280;59323;50.874;7.028;2024-03-06T02:33:52;101412.66;;;5.73;100.00
71504;BME280;59323;50.874;7.028;2024-03-06T02:36:18;101412.97;;;5.71;100.00
71504;BME280;59323;50.874;7.028;2024-03-06T02:38:44;101408.38;;;5.72;100.00
71504;BME280;59323;50.874;7.028;2024-03-06T02:41:10;101409.47;;;5.71;100.00
71504;BME280;59323;50.874;7.028;2024-03-06T02:43:37;101413.44;;;5.73;100.00
71504;BME280;59323;50.874;7.028;2024-03-06T02:46:04;101404.56;;;5.73;100.00
71504;BME280;59323;50.874;7.028;2024-03-06T02:48:30;101406.47;;;5.72;100.00
71504;BME280;59323;50.874;7.028;2024-03-06T02:50:56;101408.03;;;5.73;100.00
71504;BME280;59323;50.874;7.028;2024-03-06T02:53:21;101408.84;;;5.74;100.00
71504;BME280;59323;50.874;7.028;2024-03-06T02:55:49;101411.06;;;5.72;100.00
71504;BME280;59323;50.874;7.028;2024-03-06T02:58:15;101411.84;;;5.72;100.00
71504;BME280;59323;50.874;7.028;2024-03-06T03:00:43;101418.34;;;5.71;100.00
71504;BME280;59323;50.874;7.028;2024-03-06T03:03:09;101416.44;;;5.72;100.00
71504;BME280;59323;50.874;7.028;2024-03-06T03:05:38;101418.34;;;5.71;100.00
71504;BME280;59323;50.874;7.028;2024-03-06T03:08:03;101419.47;;;5.70;100.00
71504;BME280;59323;50.874;7.028;2024-03-06T03:10:29;101409.31;;;5.67;100.00
71504;BME280;59323;50.874;7.028;2024-03-06T03:12:54;101415.50;;;5.68;100.00
71504;BME280;59323;50.874;7.028;2024-03-06T03:15:20;101416.59;;;5.67;100.00
71504;BME280;59323;50.874;7.028;2024-03-06T03:17:45;101413.13;;;5.66;100.00
71504;BME280;59323;50.874;7.028;2024-03-06T03:20:11;101421.19;;;5.66;100.00
71504;BME280;59323;50.874;7.028;2024-03-06T03:22:42;101415.31;;;5.64;100.00
71504;BME280;59323;50.874;7.028;2024-03-06T03:25:11;101417.22;;;5.64;100.00
71504;BME280;59323;50.874;7.028;2024-03-06T03:27:38;101416.75;;;5.62;100.00
71504;BME280;59323;50.874;7.028;2024-03-06T03:30:07;101417.53;;;5.62;100.00
71504;BME280;59323;50.874;7.028;2024-03-06T03:32:35;101418.97;;;5.60;100.00
71504;BME280;59323;50.874;7.028;2024-03-06T03:35:03;101424.84;;;5.62;100.00
71504;BME280;59323;50.874;7.028;2024-03-06T03:37:31;101430.53;;;5.60;100.00
71504;BME280;59323;50.874;7.028;2024-03-06T03:39:59;101427.53;;;5.62;100.00
71504;BME280;59323;50.874;7.028;2024-03-06T03:42:24;101437.03;;;5.59;100.00
71504;BME280;59323;50.874;7.028;2024-03-06T03:44:52;101443.84;;;5.57;100.00
71504;BME280;59323;50.874;7.028;2024-03-06T03:47:18;101447.66;;;5.56;100.00
71504;BME280;59323;50.874;7.028;2024-03-06T03:49:45;101452.88;;;5.52;100.00
71504;BME280;59323;50.874;7.028;2024-03-06T03:52:11;101460.97;;;5.52;100.00
71504;BME280;59323;50.874;7.028;2024-03-06T03:54:37;101464.78;;;5.51;100.00
71504;BME280;59323;50.874;7.028;2024-03-06T03:57:07;101462.53;;;5.45;100.00
71504;BME280;59323;50.874;7.028;2024-03-06T03:59:33;101472.50;;;5.44;100.00
71504;BME280;59323;50.874;7.028;2024-03-06T04:02:01;101472.03;;;5.42;100.00
71504;BME280;59323;50.874;7.028;2024-03-06T04:04:26;101481.03;;;5.37;100.00
71504;BME280;59323;50.874;7.028;2024-03-06T04:06:52;101484.06;;;5.36;100.00
71504;BME280;59323;50.874;7.028;2024-03-06T04:09:17;101483.41;;;5.30;100.00
71504;BME280;59323;50.874;7.028;2024-03-06T04:11:45;101491.00;;;5.28;100.00
71504;BME280;59323;50.874;7.028;2024-03-06T04:14:12;101489.22;;;5.24;100.00
71504;BME280;59323;50.874;7.028;2024-03-06T04:16:37;101490.63;;;5.21;100.00
71504;BME280;59323;50.874;7.028;2024-03-06T04:19:03;101482.34;;;5.18;100.00
71504;BME280;59323;50.874;7.028;2024-03-06T04:21:28;101491.84;;;5.15;100.00
71504;BME280;59323;50.874;7.028;2024-03-06T04:23:54;101489.78;;;5.12;100.00
71504;BME280;59323;50.874;7.028;2024-03-06T04:26:20;101497.69;;;5.08;100.00
71504;BME280;59323;50.874;7.028;2024-03-06T04:28:45;101501.78;;;5.06;100.00
71504;BME280;59323;50.874;7.028;2024-03-06T04:31:13;101497.31;;;5.01;100.00
71504;BME280;59323;50.874;7.028;2024-03-06T04:33:41;101503.31;;;4.98;100.00
71504;BME280;59323;50.874;7.028;2024-03-06T04:36:09;101504.41;;;4.97;100.00
71504;BME280;59323;50.874;7.028;2024-03-06T04:38:35;101494.25;;;4.94;100.00
71504;BME280;59323;50.874;7.028;2024-03-06T04:41:00;101506.44;;;4.92;100.00
71504;BME280;59323;50.874;7.028;2024-03-06T04:43:28;101501.69;;;4.89;100.00
71504;BME280;59323;50.874;7.028;2024-03-06T04:45:53;101517.34;;;4.87;100.00
71504;BME280;59323;50.874;7.028;2024-03-06T04:48:19;101514.47;;;4.83;100.00
71504;BME280;59323;50.874;7.028;2024-03-06T04:50:44;101525.22;;;4.83;100.00
71504;BME280;59323;50.874;7.028;2024-03-06T04:53:10;101516.66;;;4.81;100.00
71504;BME280;59323;50.874;7.028;2024-03-06T04:55:38;101518.25;;;4.82;100.00
71504;BME280;59323;50.874;7.028;2024-03-06T04:58:04;101516.19;;;4.79;100.00
71504;BME280;59323;50.874;7.028;2024-03-06T05:00:32;101517.28;;;4.78;100.00
71504;BME280;59323;50.874;7.028;2024-03-06T05:02:57;101517.28;;;4.78;100.00
71504;BME280;59323;50.874;7.028;2024-03-06T05:05:23;101519.00;;;4.74;100.00
71504;BME280;59323;50.874;7.028;2024-03-06T05:07:48;101529.47;;;4.75;100.00
71504;BME280;59323;50.874;7.028;2024-03-06T05:10:14;101534.03;;;4.75;100.00
71504;BME280;59323;50.874;7.028;2024-03-06T05:12:42;101537.03;;;4.73;100.00
71504;BME280;59323;50.874;7.028;2024-03-06T05:15:08;101537.53;;;4.75;100.00
71504;BME280;59323;50.874;7.028;2024-03-06T05:17:34;101543.72;;;4.76;100.00
71504;BME280;59323;50.874;7.028;2024-03-06T05:19:59;101539.75;;;4.73;100.00
71504;BME280;59323;50.874;7.028;2024-03-06T05:22:27;101550.69;;;4.77;100.00
71504;BME280;59323;50.874;7.028;2024-03-06T05:24:52;101549.91;;;4.76;100.00
71504;BME280;59323;50.874;7.028;2024-03-06T05:27:18;101545.91;;;4.74;100.00
71504;BME280;59323;50.874;7.028;2024-03-06T05:29:46;101538.31;;;4.76;100.00
71504;BME280;59323;50.874;7.028;2024-03-06T05:32:11;101552.59;;;4.76;100.00
71504;BME280;59323;50.874;7.028;2024-03-06T05:34:37;101544.81;;;4.75;100.00
71504;BME280;59323;50.874;7.028;2024-03-06T05:37:02;101544.03;;;4.74;100.00
71504;BME280;59323;50.874;7.028;2024-03-06T05:39:31;101557.47;;;4.74;100.00
71504;BME280;59323;50.874;7.028;2024-03-06T05:42:03;101564.75;;;4.74;100.00
71504;BME280;59323;50.874;7.028;2024-03-06T05:44:32;101564.28;;;4.72;100.00
71504;BME280;59323;50.874;7.028;2024-03-06T05:46:59;101568.38;;;4.69;100.00
71504;BME280;59323;50.874;7.028;2024-03-06T05:49:24;101572.47;;;4.67;100.00
71504;BME280;59323;50.874;7.028;2024-03-06T05:51:52;101576.56;;;4.64;100.00
71504;BME280;59323;50.874;7.028;2024-03-06T05:54:20;101577.16;;;4.61;100.00
71504;BME280;59323;50.874;7.028;2024-03-06T05:56:49;101577.97;;;4.62;100.00
71504;BME280;59323;50.874;7.028;2024-03-06T05:59:17;101579.66;;;4.58;100.00
71504;BME280;59323;50.874;7.028;2024-03-06T06:01:43;101580.47;;;4.58;100.00
71504;BME280;59323;50.874;7.028;2024-03-06T06:04:09;101587.53;;;4.54;100.00
71504;BME280;59323;50.874;7.028;2024-03-06T06:06:35;101595.59;;;4.54;100.00
71504;BME280;59323;50.874;7.028;2024-03-06T06:09:00;101597.00;;;4.52;100.00
71504;BME280;59323;50.874;7.028;2024-03-06T06:11:26;101598.09;;;4.51;100.00
71504;BME280;59323;50.874;7.028;2024-03-06T06:13:53;101602.97;;;4.49;100.00
71504;BME280;59323;50.874;7.028;2024-03-06T06:16:21;101604.38;;;4.46;100.00
71504;BME280;59323;50.874;7.028;2024-03-06T06:18:47;101606.38;;;4.40;100.00
71504;BME280;59323;50.874;7.028;2024-03-06T06:21:12;101609.06;;;4.40;100.00
71504;BME280;59323;50.874;7.028;2024-03-06T06:23:37;101612.84;;;4.39;100.00
71504;BME280;59323;50.874;7.028;2024-03-06T06:26:03;101615.84;;;4.38;100.00
71504;BME280;59323;50.874;7.028;2024-03-06T06:28:28;101622.63;;;4.35;100.00
71504;BME280;59323;50.874;7.028;2024-03-06T06:30:54;101628.13;;;4.30;100.00
71504;BME280;59323;50.874;7.028;2024-03-06T06:33:21;101620.03;;;4.30;100.00
71504;BME280;59323;50.874;7.028;2024-03-06T06:35:47;101629.50;;;4.28;100.00
71504;BME280;59323;50.874;7.028;2024-03-06T06:38:13;101626.03;;;4.27;100.00
71504;BME280;59323;50.874;7.028;2024-03-06T06:40:41;101633.78;;;4.29;100.00
71504;BME280;59323;50.874;7.028;2024-03-06T06:43:06;101636.78;;;4.27;100.00
71504;BME280;59323;50.874;7.028;2024-03-06T06:45:31;101646.75;;;4.27;100.00
71504;BME280;59323;50.874;7.028;2024-03-06T06:47:57;101647.53;;;4.27;100.00
71504;BME280;59323;50.874;7.028;2024-03-06T06:50:22;101651.34;;;4.26;100.00
71504;BME280;59323;50.874;7.028;2024-03-06T06:52:53;101654.53;;;4.28;100.00
71504;BME280;59323;50.874;7.028;2024-03-06T06:55:18;101649.75;;;4.25;100.00
71504;BME280;59323;50.874;7.028;2024-03-06T06:57:47;101652.44;;;4.25;100.00
71504;BME280;59323;50.874;7.028;2024-03-06T07:00:15;101660.00;;;4.23;100.00
71504;BME280;59323;50.874;7.028;2024-03-06T07:02:44;101662.69;;;4.23;100.00
71504;BME280;59323;50.874;7.028;2024-03-06T07:05:10;101664.59;;;4.23;100.00
71504;BME280;59323;50.874;7.028;2024-03-06T07:07:36;101675.84;;;4.25;100.00
71504;BME280;59323;50.874;7.028;2024-03-06T07:10:02;101670.97;;;4.27;100.00
71504;BME280;59323;50.874;7.028;2024-03-06T07:12:29;101682.13;;;4.34;100.00
71504;BME280;59323;50.874;7.028;2024-03-06T07:14:54;101676.94;;;4.37;100.00
71504;BME280;59323;50.874;7.028;2024-03-06T07:17:20;101680.13;;;4.39;100.00
71504;BME280;59323;50.874;7.028;2024-03-06T07:19:45;101682.03;;;4.39;100.00
71504;BME280;59323;50.874;7.028;2024-03-06T07:22:10;101683.31;;;4.41;100.00
71504;BME280;59323;50.874;7.028;2024-03-06T07:24:36;101687.22;;;4.35;100.00
71504;BME280;59323;50.874;7.028;2024-03-06T07:27:02;101691.59;;;4.31;100.00
71504;BME280;59323;50.874;7.028;2024-03-06T07:29:27;101699.47;;;4.28;100.00
71504;BME280;59323;50.874;7.028;2024-03-06T07:31:53;101699.66;;;4.31;100.00
71504;BME280;59323;50.874;7.028;2024-03-06T07:34:19;101700.25;;;4.28;100.00
71504;BME280;59323;50.874;7.028;2024-03-06T07:36:50;101706.53;;;4.37;100.00
71504;BME280;59323;50.874;7.028;2024-03-06T07:39:23;101709.34;;;4.46;100.00
71504;BME280;59323;50.874;7.028;2024-03-06T07:41:51;101715.09;;;4.53;100.00
71504;BME280;59323;50.874;7.028;2024-03-06T07:44:17;101716.69;;;4.54;100.00
71504;BME280;59323;50.874;7.028;2024-03-06T07:46:45;101722.72;;;4.65;100.00
71504;BME280;59323;50.874;7.028;2024-03-06T07:49:10;101725.00;;;4.71;100.00
71504;BME280;59323;50.874;7.028;2024-03-06T07:51:36;101725.69;;;4.77;100.00
71504;BME280;59323;50.874;7.028;2024-03-06T07:54:01;101723.69;;;4.83;100.00
71504;BME280;59323;50.874;7.028;2024-03-06T07:56:31;101726.28;;;4.88;100.00
71504;BME280;59323;50.874;7.028;2024-03-06T07:58:57;101730.56;;;4.89;100.00
71504;BME280;59323;50.874;7.028;2024-03-06T08:01:22;101734.38;;;4.88;100.00
71504;BME280;59323;50.874;7.028;2024-03-06T08:03:48;101743.44;;;4.92;100.00
71504;BME280;59323;50.874;7.028;2024-03-06T08:06:14;101741.84;;;4.91;100.00
71504;BME280;59323;50.874;7.028;2024-03-06T08:08:45;101748.63;;;4.88;100.00
71504;BME280;59323;50.874;7.028;2024-03-06T08:11:14;101747.53;;;4.89;100.00
71504;BME280;59323;50.874;7.028;2024-03-06T08:13:39;101755.59;;;4.89;100.00
71504;BME280;59323;50.874;7.028;2024-03-06T08:16:05;101757.00;;;4.87;100.00
71504;BME280;59323;50.874;7.028;2024-03-06T08:18:32;101764.47;;;4.90;100.00
71504;BME280;59323;50.874;7.028;2024-03-06T08:20:57;101758.91;;;4.86;100.00
71504;BME280;59323;50.874;7.028;2024-03-06T08:23:22;101758.00;;;4.91;100.00
71504;BME280;59323;50.874;7.028;2024-03-06T08:25:51;101761.97;;;4.93;100.00
71504;BME280;59323;50.874;7.028;2024-03-06T08:28:17;101764.47;;;5.03;100.00
71504;BME280;59323;50.874;7.028;2024-03-06T08:30:43;101767.25;;;5.12;100.00
71504;BME280;59323;50.874;7.028;2024-03-06T08:33:09;101766.84;;;5.19;100.00
71504;BME280;59323;50.874;7.028;2024-03-06T08:35:35;101777.41;;;5.29;100.00
71504;BME280;59323;50.874;7.028;2024-03-06T08:38:00;101770.72;;;5.40;100.00
71504;BME280;59323;50.874;7.028;2024-03-06T08:40:59;101766.69;;;5.51;100.00
71504;BME280;59323;50.874;7.028;2024-03-06T08:47:52;101760.56;;;5.59;100.00
71504;BME280;59323;50.874;7.028;2024-03-06T08:58:55;101773.44;;;6.52;100.00
71504;BME280;59323;50.874;7.028;2024-03-06T09:01:26;101778.16;;;6.86;100.00
71504;BME280;59323;50.874;7.028;2024-03-06T09:11:44;101791.66;;;8.03;100.00
71504;BME280;59323;50.874;7.028;2024-03-06T09:14:17;101783.94;;;8.31;100.00
71504;BME280;59323;50.874;7.028;2024-03-06T09:16:42;101791.25;;;8.56;100.00
71504;BME280;59323;50.874;7.028;2024-03-06T09:19:08;101791.31;;;8.77;100.00
71504;BME280;59323;50.874;7.028;2024-03-06T09:21:36;101799.38;;;8.95;100.00
71504;BME280;59323;50.874;7.028;2024-03-06T09:24:04;101789.19;;;9.21;100.00
71504;BME280;59323;50.874;7.028;2024-03-06T09:26:29;101795.09;;;9.23;100.00
71504;BME280;59323;50.874;7.028;2024-03-06T09:28:57;101796.88;;;9.40;100.00
71504;BME280;59323;50.874;7.028;2024-03-06T09:31:23;101798.41;;;9.49;100.00
71504;BME280;59323;50.874;7.028;2024-03-06T09:33:48;101799.47;;;9.57;100.00
71504;BME280;59323;50.874;7.028;2024-03-06T09:36:16;101808.28;;;9.75;100.00
71504;BME280;59323;50.874;7.028;2024-03-06T09:38:44;101798.41;;;9.91;100.00
71504;BME280;59323;50.874;7.028;2024-03-06T09:41:09;101809.25;;;10.12;100.00
71504;BME280;59323;50.874;7.028;2024-03-06T09:43:39;101818.59;;;10.23;100.00
71504;BME280;59323;50.874;7.028;2024-03-06T09:46:08;101812.41;;;10.14;100.00
71504;BME280;59323;50.874;7.028;2024-03-06T09:48:44;101821.28;;;10.23;100.00
71504;BME280;59323;50.874;7.028;2024-03-06T09:51:10;101825.00;;;10.18;100.00
71504;BME280;59323;50.874;7.028;2024-03-06T09:53:37;101830.50;;;10.10;100.00
71504;BME280;59323;50.874;7.028;2024-03-06T09:56:03;101817.19;;;10.17;100.00
71504;BME280;59323;50.874;7.028;2024-03-06T09:58:31;101831.38;;;10.23;100.00
71504;BME280;59323;50.874;7.028;2024-03-06T10:00:58;101829.63;;;10.18;100.00
71504;BME280;59323;50.874;7.028;2024-03-06T10:03:25;101827.88;;;10.01;100.00
71504;BME280;59323;50.874;7.028;2024-03-06T10:05:50;101825.81;;;9.98;100.00
71504;BME280;59323;50.874;7.028;2024-03-06T10:08:16;101838.31;;;10.11;100.00
71504;BME280;59323;50.874;7.028;2024-03-06T10:10:42;101833.94;;;10.19;100.00
71504;BME280;59323;50.874;7.028;2024-03-06T10:13:08;101837.59;;;10.23;100.00
71504;BME280;59323;50.874;7.028;2024-03-06T10:15:36;101835.91;;;10.31;100.00
71504;BME280;59323;50.874;7.028;2024-03-06T10:18:27;101842.13;;;10.52;100.00
71504;BME280;59323;50.874;7.028;2024-03-06T10:21:04;101843.50;;;10.70;100.00
71504;BME280;59323;50.874;7.028;2024-03-06T10:23:34;101849.50;;;10.76;100.00
71504;BME280;59323;50.874;7.028;2024-03-06T10:26:00;101843.19;;;10.84;100.00
71504;BME280;59323;50.874;7.028;2024-03-06T10:28:27;101861.31;;;10.92;100.00
71504;BME280;59323;50.874;7.028;2024-03-06T10:31:03;101855.66;;;10.85;100.00
71504;BME280;59323;50.874;7.028;2024-03-06T10:33:48;101844.88;;;10.89;100.00
71504;BME280;59323;50.874;7.028;2024-03-06T10:36:13;101858.25;;;10.94;99.80
71504;BME280;59323;50.874;7.028;2024-03-06T10:38:41;101848.84;;;10.91;100.00
71504;BME280;59323;50.874;7.028;2024-03-06T10:41:14;101852.06;;;11.05;100.00
71504;BME280;59323;50.874;7.028;2024-03-06T10:43:43;101842.28;;;11.29;100.00
71504;BME280;59323;50.874;7.028;2024-03-06T10:46:12;101857.03;;;11.40;99.04
71504;BME280;59323;50.874;7.028;2024-03-06T10:48:49;101847.72;;;11.41;99.14
71504;BME280;59323;50.874;7.028;2024-03-06T10:51:45;101852.91;;;11.70;98.37
71504;BME280;59323;50.874;7.028;2024-03-06T10:54:15;101838.03;;;11.68;97.52
71504;BME280;59323;50.874;7.028;2024-03-06T10:56:54;101853.34;;;11.85;100.00
71504;BME280;59323;50.874;7.028;2024-03-06T10:59:38;101861.19;;;11.86;97.97
71504;BME280;59323;50.874;7.028;2024-03-06T11:06:21;101852.41;;;11.93;98.26
71504;BME280;59323;50.874;7.028;2024-03-06T11:09:30;101848.81;;;11.77;97.10
71504;BME280;59323;50.874;7.028;2024-03-06T11:13:35;101857.31;;;11.63;96.40
71504;BME280;59323;50.874;7.028;2024-03-06T11:20:19;101855.75;;;11.62;97.09
71504;BME280;59323;50.874;7.028;2024-03-06T11:28:16;101854.22;;;11.12;100.00
71504;BME280;59323;50.874;7.028;2024-03-06T11:30:45;101859.28;;;11.01;100.00
71504;BME280;59323;50.874;7.028;2024-03-06T11:33:15;101861.66;;;10.91;100.00
71504;BME280;59323;50.874;7.028;2024-03-06T11:35:43;101860.72;;;10.74;100.00
71504;BME280;59323;50.874;7.028;2024-03-06T11:38:29;101856.53;;;10.65;100.00
71504;BME280;59323;50.874;7.028;2024-03-06T11:40:54;101857.19;;;10.62;100.00
71504;BME280;59323;50.874;7.028;2024-03-06T11:43:26;101857.78;;;10.67;100.00
71504;BME280;59323;50.874;7.028;2024-03-06T11:45:52;101856.19;;;10.66;100.00
71504;BME280;59323;50.874;7.028;2024-03-06T11:48:20;101855.97;;;10.71;100.00
71504;BME280;59323;50.874;7.028;2024-03-06T11:50:47;101857.56;;;10.85;100.00
71504;BME280;59323;50.874;7.028;2024-03-06T12:04:43;101853.84;;;10.89;97.23
71504;BME280;59323;50.874;7.028;2024-03-06T12:14:43;101853.91;;;10.68;98.86
71504;BME280;59323;50.874;7.028;2024-03-06T12:17:14;101855.41;;;10.78;99.66
71504;BME280;59323;50.874;7.028;2024-03-06T12:19:42;101855.41;;;10.78;100.00
71504;BME280;59323;50.874;7.028;2024-03-06T12:22:10;101846.47;;;10.77;99.31
71504;BME280;59323;50.874;7.028;2024-03-06T12:24:35;101850.88;;;10.82;100.00
71504;BME280;59323;50.874;7.028;2024-03-06T12:27:02;101848.22;;;11.06;100.00
71504;BME280;59323;50.874;7.028;2024-03-06T12:29:31;101847.84;;;11.20;100.00
71504;BME280;59323;50.874;7.028;2024-03-06T12:31:58;101845.94;;;11.21;97.00
71504;BME280;59323;50.874;7.028;2024-03-06T12:34:25;101857.16;;;11.31;99.18
71504;BME280;59323;50.874;7.028;2024-03-06T12:36:51;101852.38;;;11.28;96.65
71504;BME280;59323;50.874;7.028;2024-03-06T12:39:17;101853.06;;;11.37;97.37
71504;BME280;59323;50.874;7.028;2024-03-06T12:41:46;101851.44;;;11.49;96.43
71504;BME280;59323;50.874;7.028;2024-03-06T12:44:12;101849.88;;;11.48;95.50
71504;BME280;59323;50.874;7.028;2024-03-06T12:46:37;101851.91;;;11.51;92.07
71504;BME280;59323;50.874;7.028;2024-03-06T12:49:03;101851.91;;;11.51;93.91
71504;BME280;59323;50.874;7.028;2024-03-06T12:51:30;101850.31;;;11.50;92.91
71504;BME280;59323;50.874;7.028;2024-03-06T12:53:58;101847.56;;;11.62;93.98
71504;BME280;59323;50.874;7.028;2024-03-06T12:56:29;101840.88;;;11.71;93.20
71504;BME280;59323;50.874;7.028;2024-03-06T12:58:54;101841.13;;;11.79;86.13
71504;BME280;59323;50.874;7.028;2024-03-06T13:01:19;101843.50;;;11.80;88.16
71504;BME280;59323;50.874;7.028;2024-03-06T13:03:45;101842.66;;;11.92;89.78
71504;BME280;59323;50.874;7.028;2024-03-06T13:06:11;101832.94;;;11.79;87.39
71504;BME280;59323;50.874;7.028;2024-03-06T13:08:36;101834.72;;;11.87;88.70
71504;BME280;59323;50.874;7.028;2024-03-06T13:11:02;101833.91;;;11.98;88.90
71504;BME280;59323;50.874;7.028;2024-03-06T13:13:28;101834.34;;;12.00;88.52
71504;BME280;59323;50.874;7.028;2024-03-06T13:15:55;101831.38;;;12.05;90.95
71504;BME280;59323;50.874;7.028;2024-03-06T13:18:21;101835.88;;;12.14;90.55
71504;BME280;59323;50.874;7.028;2024-03-06T13:20:46;101821.84;;;12.27;91.03
71504;BME280;59323;50.874;7.028;2024-03-06T13:23:11;101831.34;;;12.33;90.51
71504;BME280;59323;50.874;7.028;2024-03-06T13:25:39;101828.06;;;12.28;86.62
71504;BME280;59323;50.874;7.028;2024-03-06T13:28:05;101823.22;;;12.21;87.27
71504;BME280;59323;50.874;7.028;2024-03-06T13:30:31;101830.34;;;12.26;87.42
71504;BME280;59323;50.874;7.028;2024-03-06T13:32:59;101822.63;;;12.28;86.67
71504;BME280;59323;50.874;7.028;2024-03-06T13:35:27;101823.84;;;12.30;85.93
71504;BME280;59323;50.874;7.028;2024-03-06T13:37:53;101834.41;;;12.32;84.45
71504;BME280;59323;50.874;7.028;2024-03-06T13:40:19;101832.72;;;12.27;84.85
71504;BME280;59323;50.874;7.028;2024-03-06T13:42:47;101834.75;;;12.30;74.63
71504;BME280;59323;50.874;7.028;2024-03-06T13:45:14;101835.28;;;12.20;72.68